Terminal Aerodrome Forecast
Issued by NWS

Home | Current Version | Previous Version | Text Only | Print | Product List | Glossary On
Versions: 1 2 3 4 5 6 7 8 9 10 11 12 13 14 15 16 17 18 19
000
FTUS44 KJAN 191833 AAA
TAFGTR
TAF AMD
KGTR 191833Z 1919/2018 25012G18KT P6SM SCT035 BKN045
     FM200400 18011KT P6SM VCTS BKN035CB OVC250
     FM200900 27008KT 6SM BR OVC015
     FM201600 30010G16KT P6SM OVC015=

USA.gov is the U.S. government's official web portal to all federal, state and local government web resources and services.